Time;durP1;ratioP1;P1;durP2;ratioP2;P2;SDS_P1;SDS_P2;PMS_P1;PMS_P2;Temp;Humidity;BMP_temperature;BMP_pressure;BME280_temperature;BME280_humidity;BME280_pressure;Samples;Min_cycle;Max_cycle;Signal;HPM_P1;HPM_P2
2021/06/24 00:02:14;;;;;;;1999.90;999.90;;;;;;;23.43;84.65;98346.44;5038320;28;20103;-65
2021/06/24 00:04:41;;;;;;;1999.90;999.90;;;;;;;23.66;83.71;98350.72;5041390;28;20055;-65
2021/06/24 00:07:07;;;;;;;1999.90;999.90;;;;;;;23.45;83.76;98355.28;5036915;28;20053;-65
2021/06/24 00:09:34;;;;;;;1999.90;999.90;;;;;;;23.35;84.76;98331.56;5036723;28;20049;-65
2021/06/24 00:12:00;;;;;;;1999.90;999.90;;;;;;;22.69;88.40;98307.69;5046106;28;20053;-65
2021/06/24 00:14:27;;;;;;;1999.90;999.90;;;;;;;23.06;86.55;98311.19;5048238;28;20503;-65
2021/06/24 00:16:54;;;;;;;1999.90;999.90;;;;;;;22.73;87.70;98321.78;5037656;28;20049;-65
2021/06/24 00:19:20;;;;;;;1999.90;999.90;;;;;;;23.28;85.65;98325.97;5037665;28;20093;-65
2021/06/24 00:21:47;;;;;;;1999.90;999.90;;;;;;;23.08;86.67;98322.84;5038139;28;20127;-65
2021/06/24 00:24:13;;;;;;;1999.90;999.90;;;;;;;22.42;89.44;98307.41;5046140;28;20111;-65
2021/06/24 00:26:40;;;;;;;1999.90;999.90;;;;;;;22.80;87.97;98293.56;5049164;28;20049;-65
2021/06/24 00:29:07;;;;;;;1999.90;999.90;;;;;;;22.85;87.70;98298.78;5045735;28;20115;-65
2021/06/24 00:31:33;;;;;;;1999.90;999.90;;;;;;;22.86;87.72;98303.19;5040008;28;20075;-65
2021/06/24 00:34:00;;;;;;;1999.90;999.90;;;;;;;23.16;86.07;98307.53;5038666;28;20075;-65
2021/06/24 00:36:26;;;;;;;1999.90;999.90;;;;;;;22.52;89.62;98291.66;5045743;28;20430;-65
2021/06/24 00:38:53;;;;;;;1999.90;999.90;;;;;;;22.55;89.11;98293.66;5037034;28;20071;-65
2021/06/24 00:41:20;;;;;;;1999.90;999.90;;;;;;;21.57;94.83;98292.16;5031992;28;20107;-65
2021/06/24 00:43:47;;;;;;;1999.90;999.90;;;;;;;22.11;92.96;98290.13;5044950;28;20354;-65
2021/06/24 00:46:13;;;;;;;1999.90;999.90;;;;;;;22.85;89.04;98292.31;5040178;28;20053;-65
2021/06/24 00:48:40;;;;;;;1999.90;999.90;;;;;;;23.45;85.28;98310.16;5047029;28;20102;-65
2021/06/24 00:51:07;;;;;;;1999.90;999.90;;;;;;;23.59;84.25;98308.44;5034055;28;20496;-65
2021/06/24 00:53:33;;;;;;;1999.90;999.90;;;;;;;23.81;82.88;98312.69;5041035;28;20075;-65
2021/06/24 00:56:02;;;;;;;1999.90;999.90;;;;;;;22.74;87.48;98298.03;5048408;28;20053;-65
2021/06/24 00:58:29;;;;;;;1999.90;999.90;;;;;;;22.10;92.19;98285.69;5035357;28;20106;-65
2021/06/24 01:00:57;;;;;;;1999.90;999.90;;;;;;;22.49;90.06;98281.22;5041479;28;20044;-65
2021/06/24 01:03:24;;;;;;;1999.90;999.90;;;;;;;23.10;87.15;98280.94;5047114;28;20414;-65
2021/06/24 01:05:51;;;;;;;1999.90;999.90;;;;;;;22.77;88.96;98277.47;5045030;28;20102;-65
2021/06/24 01:08:22;;;;;;;1999.90;999.90;;;;;;;22.87;88.56;98267.38;5043525;28;20098;-65
2021/06/24 01:10:50;;;;;;;1999.90;999.90;;;;;;;23.23;86.36;98274.84;5045556;28;20037;-65
2021/06/24 01:13:17;;;;;;;1999.90;999.90;;;;;;;23.53;85.21;98275.00;5047883;28;20098;-65
2021/06/24 01:15:43;;;;;;;1999.90;999.90;;;;;;;23.56;84.78;98277.00;5036905;28;20506;-65
2021/06/24 01:18:10;;;;;;;1999.90;999.90;;;;;;;22.62;88.67;98273.13;5037261;28;20512;-65
2021/06/24 01:20:37;;;;;;;1999.90;999.90;;;;;;;23.05;87.86;98272.91;5032922;28;20103;-65
2021/06/24 01:23:05;;;;;;;1999.90;999.90;;;;;;;22.79;88.48;98262.97;5036923;28;20095;-65
2021/06/24 01:25:34;;;;;;;1999.90;999.90;;;;;;;23.29;86.55;98257.06;5035112;28;20053;-65
2021/06/24 01:28:03;;;;;;;1999.90;999.90;;;;;;;23.24;86.57;98256.69;5037529;28;20497;-65
2021/06/24 01:30:30;;;;;;;1999.90;999.90;;;;;;;23.38;85.58;98253.78;5035749;28;20049;-65
2021/06/24 01:32:57;;;;;;;1999.90;999.90;;;;;;;23.07;86.59;98250.72;5034669;28;20049;-65
2021/06/24 01:35:27;;;;;;;1999.90;999.90;;;;;;;23.37;85.40;98252.16;5034787;28;20042;-65
2021/06/24 01:37:59;;;;;;;1999.90;999.90;;;;;;;23.43;85.00;98247.69;5033830;28;20670;-65
2021/06/24 01:40:27;;;;;;;1999.90;999.90;;;;;;;23.22;86.08;98237.38;5039525;28;20050;-65
2021/06/24 01:42:55;;;;;;;1999.90;999.90;;;;;;;23.29;86.08;98251.41;5039300;28;20045;-65
2021/06/24 01:45:22;;;;;;;1999.90;999.90;;;;;;;23.09;87.04;98268.06;5035182;28;20072;-65
2021/06/24 01:47:49;;;;;;;1999.90;999.90;;;;;;;23.28;85.84;98263.91;5041964;28;20054;-65
2021/06/24 01:50:16;;;;;;;1999.90;999.90;;;;;;;23.19;86.33;98272.84;5047764;28;20195;-65
2021/06/24 01:52:45;;;;;;;1999.90;999.90;;;;;;;23.38;85.48;98279.16;5036506;28;20427;-65
2021/06/24 01:55:14;;;;;;;1999.90;999.90;;;;;;;23.60;83.93;98279.03;5043253;28;20512;-65
2021/06/24 01:57:41;;;;;;;1999.90;999.90;;;;;;;23.50;84.71;98269.41;5041540;28;20079;-65
2021/06/24 02:00:13;;;;;;;1999.90;999.90;;;;;;;23.37;85.12;98260.63;5038479;28;20105;-65
2021/06/24 02:02:41;;;;;;;1999.90;999.90;;;;;;;23.19;86.23;98267.22;5045435;28;20052;-65
2021/06/24 02:05:08;;;;;;;1999.90;999.90;;;;;;;23.32;85.55;98258.25;5050471;28;20107;-65
2021/06/24 02:07:40;;;;;;;1999.90;999.90;;;;;;;23.37;85.53;98250.16;5037752;28;20057;-65
2021/06/24 02:10:08;;;;;;;1999.90;999.90;;;;;;;23.51;84.54;98248.44;5043292;28;20099;-64
2021/06/24 02:12:36;;;;;;;1999.90;999.90;;;;;;;23.60;84.33;98250.81;5040980;28;20393;-65
2021/06/24 02:15:09;;;;;;;1999.90;999.90;;;;;;;23.56;84.31;98248.78;5035451;28;20135;-65
2021/06/24 02:17:36;;;;;;;1999.90;999.90;;;;;;;23.68;84.14;98246.69;5047617;28;20083;-65
2021/06/24 02:20:05;;;;;;;1999.90;999.90;;;;;;;23.54;84.75;98256.09;5046932;28;20053;-65
2021/06/24 02:22:32;;;;;;;1999.90;999.90;;;;;;;23.72;83.71;98253.09;5039251;28;20080;-65
2021/06/24 02:24:59;;;;;;;1999.90;999.90;;;;;;;23.58;84.37;98258.88;5048708;28;20045;-65
2021/06/24 02:27:25;;;;;;;1999.90;999.90;;;;;;;23.60;84.28;98247.97;5041356;28;20071;-65
2021/06/24 02:29:52;;;;;;;1999.90;999.90;;;;;;;23.66;83.75;98249.13;5036295;28;20052;-65
2021/06/24 02:32:19;;;;;;;1999.90;999.90;;;;;;;23.47;84.82;98259.75;5039449;28;20099;-65
2021/06/24 02:34:47;;;;;;;1999.90;999.90;;;;;;;23.26;85.62;98259.91;5043506;28;20103;-65
2021/06/24 02:37:14;;;;;;;1999.90;999.90;;;;;;;23.18;86.28;98259.97;5035321;28;20050;-65
2021/06/24 02:39:41;;;;;;;1999.90;999.90;;;;;;;23.17;86.25;98261.16;5038719;28;20397;-65
2021/06/24 02:42:08;;;;;;;1999.90;999.90;;;;;;;23.07;86.57;98258.41;5041165;28;20434;-65
2021/06/24 02:44:34;;;;;;;1999.90;999.90;;;;;;;22.61;88.78;98263.88;5050265;28;20080;-65
2021/06/24 02:47:01;;;;;;;1999.90;999.90;;;;;;;22.51;89.88;98267.53;5038451;28;20512;-65
2021/06/24 02:49:28;;;;;;;1999.90;999.90;;;;;;;22.33;91.13;98278.88;5042320;28;20057;-65
2021/06/24 02:51:54;;;;;;;1999.90;999.90;;;;;;;22.09;92.05;98275.66;5043218;28;20092;-65
2021/06/24 02:54:21;;;;;;;1999.90;999.90;;;;;;;21.83;94.01;98285.34;5049008;28;20130;-65
2021/06/24 02:56:48;;;;;;;1999.90;999.90;;;;;;;21.80;94.20;98281.31;5042359;28;21181;-65
2021/06/24 02:59:14;;;;;;;1999.90;999.90;;;;;;;21.76;95.16;98274.09;5035697;28;20102;-65
2021/06/24 03:01:41;;;;;;;1999.90;999.90;;;;;;;21.84;94.28;98269.25;5039753;28;20041;-65
2021/06/24 03:04:09;;;;;;;1999.90;999.90;;;;;;;21.69;95.65;98266.47;5037983;28;20049;-65
2021/06/24 03:06:35;;;;;;;1999.90;999.90;;;;;;;22.02;93.90;98263.59;5037815;28;20350;-65
2021/06/24 03:09:04;;;;;;;1999.90;999.90;;;;;;;21.54;96.93;98273.28;5036458;28;20096;-65
2021/06/24 03:11:32;;;;;;;1999.90;999.90;;;;;;;22.05;94.49;98274.03;5039753;28;20344;-65
2021/06/24 03:13:59;;;;;;;1999.90;999.90;;;;;;;22.19;93.76;98256.34;5039345;28;20049;-64
2021/06/24 03:16:25;;;;;;;1999.90;999.90;;;;;;;22.15;93.61;98254.34;5039357;28;20057;-65
2021/06/24 03:18:52;;;;;;;1999.90;999.90;;;;;;;22.16;93.93;98258.72;5040179;28;20360;-65
2021/06/24 03:21:20;;;;;;;1999.90;999.90;;;;;;;22.28;93.40;98259.53;5043087;28;20065;-65
2021/06/24 03:23:47;;;;;;;1999.90;999.90;;;;;;;22.29;93.34;98275.22;5039964;28;20099;-65
2021/06/24 03:26:15;;;;;;;1999.90;999.90;;;;;;;22.23;93.47;98293.75;5036698;28;20389;-65
2021/06/24 03:28:42;;;;;;;1999.90;999.90;;;;;;;22.25;93.78;98296.94;5035890;28;20089;-65
2021/06/24 03:31:09;;;;;;;1999.90;999.90;;;;;;;22.65;91.29;98294.84;5036063;28;20053;-65
2021/06/24 03:33:36;;;;;;;1999.90;999.90;;;;;;;22.40;92.67;98306.19;5043342;28;20053;-65
2021/06/24 03:36:03;;;;;;;1999.90;999.90;;;;;;;21.94;94.74;98305.03;5038523;28;20381;-65
2021/06/24 03:38:30;;;;;;;1999.90;999.90;;;;;;;21.84;96.57;98300.19;5046090;28;20102;-65
2021/06/24 03:40:57;;;;;;;1999.90;999.90;;;;;;;21.71;97.91;98299.81;5039584;28;20061;-65
2021/06/24 03:43:23;;;;;;;1999.90;999.90;;;;;;;22.19;95.27;98296.53;5039659;28;20049;-65
2021/06/24 03:45:50;;;;;;;1999.90;999.90;;;;;;;22.58;92.85;98300.50;5045996;28;20045;-65
2021/06/24 03:48:17;;;;;;;1999.90;999.90;;;;;;;22.65;92.52;98295.63;5042472;28;20044;-65
2021/06/24 03:50:43;;;;;;;1999.90;999.90;;;;;;;22.78;91.40;98298.81;5043328;28;20107;-65
2021/06/24 03:53:10;;;;;;;1999.90;999.90;;;;;;;22.51;92.86;98282.41;5046744;28;20040;-65
2021/06/24 03:55:43;;;;;;;1999.90;999.90;;;;;;;21.99;95.55;98276.47;5044644;28;20107;-65
2021/06/24 03:58:12;;;;;;;1999.90;999.90;;;;;;;22.30;93.55;98274.81;5043062;28;20487;-65
2021/06/24 04:00:41;;;;;;;1999.90;999.90;;;;;;;22.01;96.58;98257.16;5036766;28;20342;-64
2021/06/24 04:03:08;;;;;;;1999.90;999.90;;;;;;;22.50;94.13;98263.09;5039900;28;20044;-65
2021/06/24 04:05:35;;;;;;;1999.90;999.90;;;;;;;22.89;91.41;98255.69;5044603;28;20084;-65
2021/06/24 04:08:04;;;;;;;1999.90;999.90;;;;;;;22.89;91.08;98259.28;5031067;28;20049;-65
2021/06/24 04:10:32;;;;;;;1999.90;999.90;;;;;;;23.10;89.31;98272.50;5032773;28;20061;-65
2021/06/24 04:12:59;;;;;;;1999.90;999.90;;;;;;;23.19;89.80;98270.03;5032949;28;21331;-65
2021/06/24 04:15:27;;;;;;;1999.90;999.90;;;;;;;23.13;89.62;98285.75;5040667;28;20136;-65
2021/06/24 04:17:54;;;;;;;1999.90;999.90;;;;;;;23.27;89.53;98286.88;5041559;28;20049;-65
2021/06/24 04:20:22;;;;;;;1999.90;999.90;;;;;;;22.84;90.33;98299.19;5044152;28;20140;-65
2021/06/24 04:22:48;;;;;;;1999.90;999.90;;;;;;;22.63;91.72;98319.81;5044568;28;20102;-65
2021/06/24 04:25:17;;;;;;;1999.90;999.90;;;;;;;22.32;93.58;98333.56;5042105;28;20053;-65
2021/06/24 04:27:46;;;;;;;1999.90;999.90;;;;;;;21.49;97.92;98349.59;5040452;28;20049;-65
2021/06/24 04:30:14;;;;;;;1999.90;999.90;;;;;;;21.11;100.00;98381.63;5038176;28;20053;-65
2021/06/24 04:32:41;;;;;;;1999.90;999.90;;;;;;;20.90;100.00;98393.59;5036586;28;20049;-64
2021/06/24 04:35:08;;;;;;;1999.90;999.90;;;;;;;20.83;100.00;98381.53;5042079;28;20041;-65
2021/06/24 04:37:35;;;;;;;1999.90;999.90;;;;;;;20.53;100.00;98379.72;5031519;28;20049;-65
2021/06/24 04:40:03;;;;;;;1999.90;999.90;;;;;;;20.48;100.00;98377.28;5031050;28;20435;-65
2021/06/24 04:42:30;;;;;;;1999.90;999.90;;;;;;;20.03;100.00;98374.56;5038640;28;20037;-65
2021/06/24 04:44:57;;;;;;;1999.90;999.90;;;;;;;20.26;99.54;98367.91;5039432;28;20057;-65
2021/06/24 04:47:24;;;;;;;1999.90;999.90;;;;;;;20.55;97.14;98371.72;5033327;28;20080;-65
2021/06/24 04:49:51;;;;;;;1999.90;999.90;;;;;;;20.33;97.92;98377.16;5032136;28;20114;-64
2021/06/24 04:52:18;;;;;;;1999.90;999.90;;;;;;;20.59;95.35;98367.72;5037814;28;20415;-65
2021/06/24 04:54:45;;;;;;;1999.90;999.90;;;;;;;20.53;95.11;98355.25;5036652;28;20099;-65
2021/06/24 04:57:12;;;;;;;1999.90;999.90;;;;;;;20.78;94.58;98334.91;5029926;28;20049;-65
2021/06/24 04:59:38;;;;;;;1999.90;999.90;;;;;;;20.81;94.43;98333.31;5031548;28;20481;-65
2021/06/24 05:02:05;;;;;;;1999.90;999.90;;;;;;;21.19;92.90;98354.34;5039806;28;20485;-64
2021/06/24 05:04:32;;;;;;;1999.90;999.90;;;;;;;21.34;91.25;98346.75;5031397;28;20045;-66
2021/06/24 05:07:03;;;;;;;1999.90;999.90;;;;;;;21.41;91.23;98334.72;5038224;28;20107;-65
2021/06/24 05:09:34;;;;;;;1999.90;999.90;;;;;;;21.15;92.41;98352.72;5033840;28;20053;-65
2021/06/24 05:12:00;;;;;;;1999.90;999.90;;;;;;;21.66;90.48;98342.41;5032963;28;20091;-65
2021/06/24 05:14:27;;;;;;;1999.90;999.90;;;;;;;21.41;91.78;98315.84;5032275;28;20053;-65
2021/06/24 05:16:53;;;;;;;1999.90;999.90;;;;;;;21.85;89.99;98321.53;5034698;28;20128;-65
2021/06/24 05:19:20;;;;;;;1999.90;999.90;;;;;;;21.70;90.80;98304.63;5036697;28;20045;-65
2021/06/24 05:21:47;;;;;;;1999.90;999.90;;;;;;;21.98;89.24;98312.25;5032897;28;20053;-65
2021/06/24 05:24:14;;;;;;;1999.90;999.90;;;;;;;22.35;87.94;98317.88;5036740;28;20061;-64
2021/06/24 05:26:40;;;;;;;1999.90;999.90;;;;;;;22.31;87.04;98307.41;5050463;28;20053;-64
2021/06/24 05:29:07;;;;;;;1999.90;999.90;;;;;;;22.25;87.58;98311.81;5033631;28;20183;-65
2021/06/24 05:31:36;;;;;;;1999.90;999.90;;;;;;;22.22;88.15;98300.56;5036575;28;20107;-65
2021/06/24 05:34:04;;;;;;;1999.90;999.90;;;;;;;22.47;87.58;98301.34;5038640;28;20331;-65
2021/06/24 05:36:31;;;;;;;1999.90;999.90;;;;;;;22.50;87.38;98300.53;5037424;28;20400;-65
2021/06/24 05:38:58;;;;;;;1999.90;999.90;;;;;;;22.33;88.01;98301.41;5039634;28;20130;-65
2021/06/24 05:41:25;;;;;;;1999.90;999.90;;;;;;;22.04;88.44;98292.94;5042448;28;20503;-66
2021/06/24 05:43:51;;;;;;;1999.90;999.90;;;;;;;21.76;91.30;98297.38;5056429;28;20045;-65
2021/06/24 05:46:18;;;;;;;1999.90;999.90;;;;;;;22.44;88.13;98290.88;5036511;28;20057;-67
2021/06/24 05:48:45;;;;;;;1999.90;999.90;;;;;;;22.88;86.47;98276.63;5038074;28;20130;-65
2021/06/24 05:51:12;;;;;;;1999.90;999.90;;;;;;;22.62;87.52;98285.19;5032145;28;20099;-64
2021/06/24 05:53:38;;;;;;;1999.90;999.90;;;;;;;22.42;89.16;98289.69;5036635;28;20049;-64
2021/06/24 05:56:05;;;;;;;1999.90;999.90;;;;;;;23.15;86.40;98277.72;5039500;28;20080;-64
2021/06/24 05:58:31;;;;;;;1999.90;999.90;;;;;;;22.55;87.36;98265.47;5041466;28;20053;-64
2021/06/24 06:00:59;;;;;;;1999.90;999.90;;;;;;;22.30;90.65;98254.28;5035002;28;20057;-64
2021/06/24 06:03:26;;;;;;;1999.90;999.90;;;;;;;21.79;94.17;98264.84;5041328;28;20044;-64
2021/06/24 06:05:54;;;;;;;1999.90;999.90;;;;;;;22.82;88.79;98277.06;5049325;28;20057;-65
2021/06/24 06:08:22;;;;;;;1999.90;999.90;;;;;;;23.25;86.63;98275.22;5035408;28;20103;-64
2021/06/24 06:10:49;;;;;;;1999.90;999.90;;;;;;;23.54;87.90;98265.34;5041270;28;20049;-64
2021/06/24 06:13:16;;;;;;;1999.90;999.90;;;;;;;24.05;84.63;98254.41;5030675;28;20438;-65
2021/06/24 06:15:48;;;;;;;1999.90;999.90;;;;;;;23.95;84.64;98269.44;5047945;28;20415;-64
2021/06/24 06:18:17;;;;;;;1999.90;999.90;;;;;;;24.19;83.04;98256.31;5041103;28;20512;-64
2021/06/24 06:20:45;;;;;;;1999.90;999.90;;;;;;;23.88;85.88;98256.22;5039752;28;20448;-66
2021/06/24 06:23:14;;;;;;;1999.90;999.90;;;;;;;23.88;87.09;98255.41;5038217;28;20201;-65
2021/06/24 06:25:41;;;;;;;1999.90;999.90;;;;;;;24.61;82.79;98253.44;5039391;28;20103;-66
2021/06/24 06:28:08;;;;;;;1999.90;999.90;;;;;;;24.80;83.50;98257.59;5033914;28;20111;-65
2021/06/24 06:30:34;;;;;;;1999.90;999.90;;;;;;;24.94;81.92;98257.44;5035518;28;20388;-66
2021/06/24 06:33:02;;;;;;;1999.90;999.90;;;;;;;23.68;86.23;98252.31;5040206;28;20037;-65
2021/06/24 06:35:30;;;;;;;1999.90;999.90;;;;;;;23.29;89.55;98242.16;5041899;28;20049;-65
2021/06/24 06:37:57;;;;;;;1999.90;999.90;;;;;;;23.54;86.52;98254.06;5049771;28;20045;-65
2021/06/24 06:40:24;;;;;;;1999.90;999.90;;;;;;;24.07;85.54;98248.34;5038234;28;20049;-66
2021/06/24 06:42:50;;;;;;;1999.90;999.90;;;;;;;24.70;83.61;98235.97;5034131;28;20048;-65
2021/06/24 06:45:21;;;;;;;1999.90;999.90;;;;;;;25.43;80.43;98247.88;5037724;28;20046;-65
2021/06/24 06:47:48;;;;;;;1999.90;999.90;;;;;;;24.76;83.37;98251.22;5045333;28;20056;-66
2021/06/24 06:50:15;;;;;;;1999.90;999.90;;;;;;;24.18;85.42;98246.22;5037051;28;20095;-65
2021/06/24 06:52:42;;;;;;;1999.90;999.90;;;;;;;24.99;82.15;98250.50;5029988;28;20045;-66
2021/06/24 06:55:09;;;;;;;1999.90;999.90;;;;;;;24.93;83.34;98253.00;5040690;28;20060;-65
2021/06/24 06:57:36;;;;;;;1999.90;999.90;;;;;;;25.77;78.94;98266.69;5038629;28;20510;-65
2021/06/24 07:00:08;;;;;;;1999.90;999.90;;;;;;;25.53;81.03;98261.06;5044073;28;20080;-65
2021/06/24 07:02:36;;;;;;;1999.90;999.90;;;;;;;25.98;78.17;98274.03;5044410;28;20106;-65
2021/06/24 07:05:03;;;;;;;1999.90;999.90;;;;;;;26.17;77.52;98273.31;5037898;28;20397;-66
2021/06/24 07:07:30;;;;;;;1999.90;999.90;;;;;;;25.64;78.20;98269.34;5031708;28;20045;-65
2021/06/24 07:09:56;;;;;;;1999.90;999.90;;;;;;;26.07;78.13;98273.47;5034827;28;20061;-65
2021/06/24 07:12:23;;;;;;;1999.90;999.90;;;;;;;26.42;76.09;98274.06;5036747;28;20079;-65
2021/06/24 07:14:50;;;;;;;1999.90;999.90;;;;;;;26.75;74.50;98279.91;5031960;28;20053;-65
2021/06/24 07:17:16;;;;;;;1999.90;999.90;;;;;;;27.21;73.23;98275.25;5033972;28;20049;-65
2021/06/24 07:19:43;;;;;;;1999.90;999.90;;;;;;;26.92;72.63;98281.56;5035071;28;20054;-65
2021/06/24 07:22:09;;;;;;;1999.90;999.90;;;;;;;26.54;75.18;98281.91;5031556;28;20162;-65
2021/06/24 07:24:36;;;;;;;1999.90;999.90;;;;;;;26.25;76.93;98279.63;5034799;28;20053;-65
2021/06/24 07:27:05;;;;;;;1999.90;999.90;;;;;;;26.38;76.34;98288.31;5036417;28;20350;-65
2021/06/24 07:29:31;;;;;;;1999.90;999.90;;;;;;;26.77;74.28;98286.75;5046986;28;20052;-65
2021/06/24 07:31:58;;;;;;;1999.90;999.90;;;;;;;27.20;72.81;98287.84;5035408;28;20057;-65
2021/06/24 07:34:24;;;;;;;1999.90;999.90;;;;;;;26.46;75.55;98294.63;5039268;28;20098;-65
2021/06/24 07:36:51;;;;;;;1999.90;999.90;;;;;;;26.75;74.11;98291.25;5044523;28;20139;-65
2021/06/24 07:39:18;;;;;;;1999.90;999.90;;;;;;;26.82;74.84;98299.59;5032581;28;20076;-65
2021/06/24 07:41:44;;;;;;;1999.90;999.90;;;;;;;27.10;73.14;98291.72;5036601;28;20057;-65
2021/06/24 07:44:11;;;;;;;1999.90;999.90;;;;;;;27.24;73.16;98300.72;5031981;28;20434;-65
2021/06/24 07:46:37;;;;;;;1999.90;999.90;;;;;;;27.72;71.06;98298.41;5032838;28;20049;-65
2021/06/24 07:49:04;;;;;;;1999.90;999.90;;;;;;;27.65;70.55;98304.25;5034712;28;20473;-65
2021/06/24 07:51:31;;;;;;;1999.90;999.90;;;;;;;27.90;70.64;98297.16;5041239;28;20103;-65
2021/06/24 07:53:58;;;;;;;1999.90;999.90;;;;;;;28.00;70.51;98296.09;5031945;28;20112;-65
2021/06/24 07:56:24;;;;;;;1999.90;999.90;;;;;;;27.66;70.82;98296.53;5037287;28;20057;-65
2021/06/24 07:58:53;;;;;;;1999.90;999.90;;;;;;;27.36;71.59;98287.91;5033484;28;20076;-65
2021/06/24 08:01:19;;;;;;;1999.90;999.90;;;;;;;27.52;71.08;98277.81;5043001;28;20049;-65
2021/06/24 08:03:51;;;;;;;1999.90;999.90;;;;;;;28.08;71.72;98286.16;5042497;28;20056;-65
2021/06/24 08:06:18;;;;;;;1999.90;999.90;;;;;;;27.50;71.59;98285.97;5043423;28;20052;-65
2021/06/24 08:08:44;;;;;;;1999.90;999.90;;;;;;;28.21;69.71;98293.94;5033736;28;20060;-65
2021/06/24 08:11:11;;;;;;;1999.90;999.90;;;;;;;27.15;73.13;98283.47;5034118;28;20191;-65
2021/06/24 08:13:38;;;;;;;1999.90;999.90;;;;;;;27.41;72.88;98278.84;5034549;28;20048;-65
2021/06/24 08:16:05;;;;;;;1999.90;999.90;;;;;;;27.68;71.13;98279.88;5040732;28;20106;-65
2021/06/24 08:18:32;;;;;;;1999.90;999.90;;;;;;;27.14;73.06;98269.72;5035811;28;20334;-65
2021/06/24 08:20:58;;;;;;;1999.90;999.90;;;;;;;27.54;72.67;98272.47;5033555;28;20130;-65
2021/06/24 08:23:25;;;;;;;1999.90;999.90;;;;;;;26.74;75.92;98270.59;5054188;28;20495;-65
2021/06/24 08:25:52;;;;;;;1999.90;999.90;;;;;;;26.41;77.00;98266.78;5033461;28;20111;-65
2021/06/24 08:28:18;;;;;;;1999.90;999.90;;;;;;;26.80;76.62;98274.53;5033786;28;20105;-65
2021/06/24 08:30:45;;;;;;;1999.90;999.90;;;;;;;27.40;73.40;98271.56;5031275;28;20084;-65
2021/06/24 08:33:13;;;;;;;1999.90;999.90;;;;;;;27.38;72.88;98273.28;5031840;28;20145;-65
2021/06/24 08:35:40;;;;;;;1999.90;999.90;;;;;;;27.51;74.31;98273.34;5041570;28;20049;-65
2021/06/24 08:38:09;;;;;;;1999.90;999.90;;;;;;;28.16;71.66;98274.59;5028274;28;20045;-65
2021/06/24 08:40:38;;;;;;;1999.90;999.90;;;;;;;27.75;72.74;98269.13;5033020;28;20077;-65
2021/06/24 08:43:05;;;;;;;1999.90;999.90;;;;;;;26.60;74.85;98271.66;5032370;28;20131;-65
2021/06/24 08:45:32;;;;;;;1999.90;999.90;;;;;;;26.45;77.66;98271.13;5031259;28;20048;-65
2021/06/24 08:48:00;;;;;;;1999.90;999.90;;;;;;;27.59;73.88;98264.22;5033407;28;20049;-65
2021/06/24 08:50:28;;;;;;;1999.90;999.90;;;;;;;28.45;70.64;98269.72;5037316;28;20365;-65
2021/06/24 08:52:55;;;;;;;1999.90;999.90;;;;;;;27.71;70.89;98268.41;5034947;28;20076;-65
2021/06/24 08:55:22;;;;;;;1999.90;999.90;;;;;;;28.07;69.71;98264.66;5033485;28;20512;-65
2021/06/24 08:57:48;;;;;;;1999.90;999.90;;;;;;;28.17;71.08;98264.84;5037998;28;20135;-65
2021/06/24 09:00:15;;;;;;;1999.90;999.90;;;;;;;28.61;70.63;98260.38;5046362;28;20152;-65
2021/06/24 09:02:44;;;;;;;1999.90;999.90;;;;;;;28.86;70.18;98263.72;5034873;28;20053;-65
2021/06/24 09:05:49;;;;;;;1999.90;999.90;;;;;;;27.20;75.26;98262.31;5034577;28;20512;-65
2021/06/24 09:08:44;;;;;;;1999.90;999.90;;;;;;;26.46;78.66;98254.94;5038721;28;20128;-65
2021/06/24 09:11:11;;;;;;;1999.90;999.90;;;;;;;27.13;74.92;98256.81;5034077;28;20060;-66
2021/06/24 09:13:39;;;;;;;1999.90;999.90;;;;;;;28.05;72.24;98264.31;5043828;28;20136;-64
2021/06/24 09:16:30;;;;;;;1999.90;999.90;;;;;;;25.88;80.22;98261.66;5036627;28;20055;-64
2021/06/24 09:19:18;;;;;;;1999.90;999.90;;;;;;;26.95;77.09;98258.00;5041390;28;20116;-64
2021/06/24 09:22:04;;;;;;;1999.90;999.90;;;;;;;28.03;73.60;98266.81;5036597;28;20323;-64
2021/06/24 09:24:46;;;;;;;1999.90;999.90;;;;;;;28.83;69.12;98270.31;5031956;28;20049;-64
2021/06/24 09:27:19;;;;;;;1999.90;999.90;;;;;;;29.44;67.83;98272.09;5033417;28;20045;-65
2021/06/24 09:30:10;;;;;;;1999.90;999.90;;;;;;;28.44;70.81;98262.44;5040083;28;20049;-65
2021/06/24 09:32:44;;;;;;;1999.90;999.90;;;;;;;28.58;70.94;98266.94;5032529;28;20357;-65
2021/06/24 09:35:22;;;;;;;1999.90;999.90;;;;;;;29.85;68.33;98261.84;5037768;28;20088;-65
2021/06/24 09:38:04;;;;;;;1999.90;999.90;;;;;;;30.98;63.12;98255.78;5038478;28;20082;-65
2021/06/24 09:40:50;;;;;;;1999.90;999.90;;;;;;;30.96;63.48;98264.78;5043808;28;20044;-65
2021/06/24 09:43:26;;;;;;;1999.90;999.90;;;;;;;31.72;59.66;98273.28;5045643;28;20445;-65
2021/06/24 09:46:17;;;;;;;1999.90;999.90;;;;;;;31.33;62.76;98269.94;5043368;28;20136;-65
2021/06/24 09:48:52;;;;;;;1999.90;999.90;;;;;;;31.82;61.80;98274.91;5038927;28;20114;-65
2021/06/24 09:51:22;;;;;;;1999.90;999.90;;;;;;;31.47;62.00;98262.84;5042602;28;20068;-65
2021/06/24 09:54:05;;;;;;;1999.90;999.90;;;;;;;31.54;60.91;98268.28;5043219;28;20388;-66
2021/06/24 09:56:33;;;;;;;1999.90;999.90;;;;;;;30.28;64.54;98261.59;5039425;28;20115;-65
2021/06/24 09:59:05;;;;;;;1999.90;999.90;;;;;;;30.96;62.97;98259.09;5038946;28;20057;-65
2021/06/24 10:01:43;;;;;;;1999.90;999.90;;;;;;;30.01;66.71;98271.47;5041300;28;20079;-66
2021/06/24 10:04:37;;;;;;;1999.90;999.90;;;;;;;31.13;64.40;98262.56;5039052;28;20041;-66
2021/06/24 10:07:09;;;;;;;1999.90;999.90;;;;;;;31.94;61.40;98258.88;5035048;28;20077;-66
2021/06/24 10:09:40;;;;;;;1999.90;999.90;;;;;;;31.30;60.43;98256.59;5040505;28;20464;-66
2021/06/24 10:12:13;;;;;;;1999.90;999.90;;;;;;;31.25;59.97;98253.09;5042879;28;20095;-66
2021/06/24 10:14:43;;;;;;;1999.90;999.90;;;;;;;31.36;59.89;98257.56;5042889;28;20040;-66
2021/06/24 10:17:10;;;;;;;1999.90;999.90;;;;;;;31.73;60.23;98252.00;5044654;28;20050;-66
2021/06/24 10:19:42;;;;;;;1999.90;999.90;;;;;;;32.22;58.30;98254.00;5049631;28;20440;-66
2021/06/24 10:22:13;;;;;;;1999.90;999.90;;;;;;;32.18;58.73;98259.09;5043088;28;20099;-66
2021/06/24 10:24:43;;;;;;;1999.90;999.90;;;;;;;31.58;60.21;98252.59;5040787;28;20056;-66
2021/06/24 10:27:10;;;;;;;1999.90;999.90;;;;;;;31.72;59.30;98248.34;5049023;28;20099;-66
2021/06/24 10:29:46;;;;;;;1999.90;999.90;;;;;;;32.20;57.74;98250.03;5044073;28;20688;-66
2021/06/24 10:32:33;;;;;;;1999.90;999.90;;;;;;;31.62;60.19;98245.94;5040860;28;20076;-66
2021/06/24 10:35:03;;;;;;;1999.90;999.90;;;;;;;31.67;59.73;98246.13;5045600;28;20052;-66
2021/06/24 10:37:31;;;;;;;1999.90;999.90;;;;;;;31.48;60.74;98236.66;5043292;28;20053;-66
2021/06/24 10:40:19;;;;;;;1999.90;999.90;;;;;;;30.98;60.75;98247.19;5043736;28;20458;-66
2021/06/24 10:42:54;;;;;;;1999.90;999.90;;;;;;;31.55;60.65;98247.84;5041118;28;20234;-66
2021/06/24 10:45:23;;;;;;;1999.90;999.90;;;;;;;32.20;59.14;98242.25;5046646;28;20080;-66
2021/06/24 10:47:52;;;;;;;1999.90;999.90;;;;;;;32.37;57.49;98236.22;5044695;28;20090;-66
2021/06/24 10:50:31;;;;;;;1999.90;999.90;;;;;;;32.30;59.79;98235.25;5045202;28;20610;-66
2021/06/24 10:53:17;;;;;;;1999.90;999.90;;;;;;;31.77;59.54;98235.50;5053491;28;20045;-66
2021/06/24 10:55:49;;;;;;;1999.90;999.90;;;;;;;31.42;61.41;98232.84;5037876;28;20072;-66
2021/06/24 10:58:28;;;;;;;1999.90;999.90;;;;;;;31.63;62.04;98233.25;5039632;28;20056;-66
2021/06/24 11:00:56;;;;;;;1999.90;999.90;;;;;;;32.29;59.89;98230.00;5044514;28;20084;-66
2021/06/24 11:03:31;;;;;;;1999.90;999.90;;;;;;;31.83;59.53;98221.38;5046084;28;20393;-66